createdAt,value
2023-07-04T00:00:17.572Z,48.87
2023-07-04T00:02:44.001Z,48.74
2023-07-04T00:05:10.405Z,49.25
2023-07-04T00:07:36.732Z,49.27
2023-07-04T00:10:05.039Z,49.82
2023-07-04T00:12:32.058Z,49.84
2023-07-04T00:14:58.399Z,50.12
2023-07-04T00:17:24.913Z,49.71
2023-07-04T00:19:52.127Z,49.25
2023-07-04T00:22:18.482Z,48.90
2023-07-04T00:24:45.688Z,49.04
2023-07-04T00:27:15.202Z,48.99
2023-07-04T00:29:41.616Z,48.76
2023-07-04T00:32:08.239Z,49.22
2023-07-04T00:34:35.178Z,48.92
2023-07-04T00:37:02.910Z,48.91
2023-07-04T00:39:29.515Z,49.05
2023-07-04T00:41:55.864Z,49.60
2023-07-04T00:44:23.306Z,49.25
2023-07-04T00:46:54.694Z,49.55
2023-07-04T00:49:27.761Z,49.41
2023-07-04T00:51:56.396Z,49.79
2023-07-04T00:54:25.146Z,50.32
2023-07-04T00:56:55.853Z,50.09
2023-07-04T00:59:22.168Z,50.57
2023-07-04T01:01:48.629Z,50.72
2023-07-04T01:04:15.024Z,50.74
2023-07-04T01:06:51.231Z,51.01
2023-07-04T01:09:18.315Z,50.95
2023-07-04T01:11:45.476Z,51.15
2023-07-04T01:14:22.011Z,50.63
2023-07-04T01:16:48.655Z,51.13
2023-07-04T01:19:15.923Z,50.90
2023-07-04T01:21:42.313Z,50.92
2023-07-04T01:24:24.605Z,51.24
2023-07-04T01:26:51.020Z,50.85
2023-07-04T01:29:17.693Z,50.92
2023-07-04T01:31:45.242Z,50.21
2023-07-04T01:34:12.014Z,50.33
2023-07-04T01:36:39.738Z,49.91
2023-07-04T01:39:06.655Z,49.92
2023-07-04T01:41:33.209Z,49.87
2023-07-04T01:44:00.696Z,49.99
2023-07-04T01:46:27.091Z,49.88
2023-07-04T01:48:53.436Z,49.70
2023-07-04T01:51:23.865Z,49.78
2023-07-04T01:53:50.198Z,50.20
2023-07-04T01:56:16.516Z,50.54
2023-07-04T01:58:42.837Z,50.13
2023-07-04T02:01:09.311Z,50.24
2023-07-04T02:03:37.460Z,50.52
2023-07-04T02:06:03.879Z,50.21
2023-07-04T02:08:30.273Z,50.43
2023-07-04T02:10:56.634Z,50.47
2023-07-04T02:13:22.977Z,50.52
2023-07-04T02:15:49.405Z,50.85
2023-07-04T02:18:15.796Z,51.07
2023-07-04T02:20:42.652Z,51.86
2023-07-04T02:23:09.005Z,51.62
2023-07-04T02:25:39.999Z,51.64
2023-07-04T02:28:06.343Z,51.53
2023-07-04T02:30:32.697Z,52.24
2023-07-04T02:32:59.051Z,52.35
2023-07-04T02:35:25.577Z,52.25
2023-07-04T02:37:51.918Z,51.77
2023-07-04T02:40:18.252Z,52.31
2023-07-04T02:42:44.589Z,52.78
2023-07-04T02:45:11.396Z,52.73
2023-07-04T02:47:37.776Z,52.70
2023-07-04T02:50:04.287Z,52.79
2023-07-04T02:52:31.509Z,53.03
2023-07-04T02:54:57.944Z,52.68
2023-07-04T02:57:24.275Z,52.88
2023-07-04T02:59:50.621Z,53.23
2023-07-04T03:02:17.094Z,53.08
2023-07-04T03:04:43.495Z,52.86
2023-07-04T03:07:09.882Z,53.10
2023-07-04T03:09:36.232Z,53.13
2023-07-04T03:12:02.596Z,53.23
2023-07-04T03:14:29.011Z,52.43
2023-07-04T03:16:55.469Z,51.96
2023-07-04T03:19:22.254Z,52.11
2023-07-04T03:21:48.596Z,52.13
2023-07-04T03:24:14.917Z,52.25
2023-07-04T03:26:42.020Z,52.09
2023-07-04T03:29:08.698Z,51.91
2023-07-04T03:31:35.176Z,51.59
2023-07-04T03:34:01.618Z,52.11
2023-07-04T03:36:27.950Z,52.14
2023-07-04T03:38:54.285Z,51.91
2023-07-04T03:41:20.684Z,51.79
2023-07-04T03:43:47.037Z,51.78
2023-07-04T03:46:13.389Z,51.80
2023-07-04T03:48:39.925Z,51.33
2023-07-04T03:51:06.329Z,51.52
2023-07-04T03:53:36.097Z,51.87
2023-07-04T03:56:02.426Z,51.81
2023-07-04T03:58:28.757Z,51.77
2023-07-04T04:00:55.304Z,50.53
2023-07-04T04:03:22.435Z,50.19
2023-07-04T04:05:49.039Z,50.16
2023-07-04T04:08:15.351Z,50.51
2023-07-04T04:10:41.676Z,50.39
2023-07-04T04:13:07.996Z,50.87
2023-07-04T04:15:34.381Z,51.38
2023-07-04T04:18:00.804Z,51.62
2023-07-04T04:20:27.216Z,51.67
2023-07-04T04:22:53.565Z,51.64
2023-07-04T04:25:19.982Z,51.22
2023-07-04T04:27:49.301Z,51.40
2023-07-04T04:30:15.635Z,51.77
2023-07-04T04:32:42.048Z,52.33
2023-07-04T04:35:09.470Z,52.55
2023-07-04T04:37:35.943Z,52.94
2023-07-04T04:40:02.328Z,52.51
2023-07-04T04:42:28.774Z,52.88
2023-07-04T04:44:55.338Z,53.00
2023-07-04T04:47:24.005Z,53.29
2023-07-04T04:49:51.203Z,53.52
2023-07-04T04:52:18.932Z,53.64
2023-07-04T04:54:45.516Z,53.49
2023-07-04T04:57:13.155Z,52.71
2023-07-04T04:59:39.518Z,52.11
2023-07-04T05:02:05.864Z,51.44
2023-07-04T05:04:32.971Z,49.24
2023-07-04T05:06:59.324Z,48.75
2023-07-04T05:09:25.677Z,48.90
2023-07-04T05:11:52.031Z,48.60
2023-07-04T05:14:18.346Z,48.68
2023-07-04T05:16:44.762Z,48.25
2023-07-04T05:19:11.200Z,48.19
2023-07-04T05:21:37.684Z,45.72
2023-07-04T05:24:04.132Z,44.20
2023-07-04T05:26:30.731Z,42.32
2023-07-04T05:28:57.644Z,41.48
2023-07-04T05:31:27.389Z,40.49
2023-07-04T05:33:54.302Z,38.05
2023-07-04T05:36:22.587Z,38.31
2023-07-04T05:38:51.945Z,37.27
2023-07-04T05:41:19.104Z,37.25
2023-07-04T05:43:45.554Z,37.01
2023-07-04T05:46:12.254Z,38.14
2023-07-04T05:48:38.653Z,39.12
2023-07-04T05:51:06.160Z,38.71
2023-07-04T05:53:33.710Z,37.74
2023-07-04T05:56:10.123Z,38.31
2023-07-04T05:58:36.891Z,38.63
2023-07-04T06:01:15.345Z,37.81
2023-07-04T06:03:41.952Z,37.63
2023-07-04T06:06:15.401Z,37.42
2023-07-04T06:08:42.745Z,37.11
2023-07-04T06:11:10.112Z,37.51
2023-07-04T06:13:36.453Z,36.39
2023-07-04T06:16:03.558Z,36.86
2023-07-04T06:18:29.916Z,37.67
2023-07-04T06:21:08.164Z,38.66
2023-07-04T06:23:34.527Z,39.08
2023-07-04T06:26:00.857Z,38.95
2023-07-04T06:28:27.194Z,40.54
2023-07-04T06:30:53.904Z,41.45
2023-07-04T06:33:20.456Z,42.10
2023-07-04T06:35:46.840Z,42.63
2023-07-04T06:38:13.175Z,43.46
2023-07-04T06:40:39.558Z,43.99
2023-07-04T06:43:06.308Z,42.46
2023-07-04T06:45:33.077Z,43.89
2023-07-04T06:47:59.635Z,41.93
2023-07-04T06:50:26.064Z,41.93
2023-07-04T06:52:52.536Z,42.52
2023-07-04T06:55:18.892Z,42.73
2023-07-04T06:57:45.211Z,44.28
2023-07-04T07:00:12.747Z,42.16
2023-07-04T07:02:39.333Z,42.10
2023-07-04T07:05:06.336Z,42.81
2023-07-04T07:07:32.747Z,43.58
2023-07-04T07:09:59.159Z,44.30
2023-07-04T07:12:25.565Z,43.20
2023-07-04T07:14:51.901Z,44.23
2023-07-04T07:17:18.321Z,42.86
2023-07-04T07:19:44.906Z,42.79
2023-07-04T07:22:11.364Z,42.62
2023-07-04T07:24:37.828Z,43.08
2023-07-04T07:27:04.714Z,42.86
2023-07-04T07:29:31.902Z,44.23
2023-07-04T07:31:58.535Z,43.43
2023-07-04T07:34:24.882Z,42.57
2023-07-04T07:36:51.224Z,43.35
2023-07-04T07:39:17.683Z,43.02
2023-07-04T07:41:45.016Z,42.83
2023-07-04T07:44:11.525Z,43.05
2023-07-04T07:46:38.163Z,43.21
2023-07-04T07:49:04.740Z,42.52
2023-07-04T07:51:31.139Z,42.59
2023-07-04T07:53:57.630Z,42.87
2023-07-04T07:56:24.500Z,43.53
2023-07-04T07:58:50.906Z,43.83
2023-07-04T08:01:24.283Z,44.77
2023-07-04T08:03:51.066Z,44.92
2023-07-04T08:06:21.442Z,44.88
2023-07-04T08:08:47.758Z,45.32
2023-07-04T08:11:14.579Z,44.73
2023-07-04T08:13:41.253Z,45.36
2023-07-04T08:16:07.685Z,44.26
2023-07-04T08:18:34.023Z,44.59
2023-07-04T08:21:01.373Z,44.73
2023-07-04T08:23:27.779Z,43.01
2023-07-04T08:25:54.176Z,43.37
2023-07-04T08:28:20.627Z,44.35
2023-07-04T08:30:46.981Z,41.13
2023-07-04T08:33:18.244Z,43.42
2023-07-04T08:35:56.914Z,44.33
2023-07-04T08:38:23.274Z,45.16
2023-07-04T08:40:50.199Z,44.54
2023-07-04T08:43:20.520Z,42.34
2023-07-04T08:45:47.140Z,41.49
2023-07-04T08:48:17.364Z,42.78
2023-07-04T08:50:43.761Z,43.94
2023-07-04T08:53:11.760Z,43.48
2023-07-04T08:55:41.699Z,44.50
2023-07-04T08:58:09.324Z,40.67
2023-07-04T09:00:37.176Z,39.29
2023-07-04T09:03:09.202Z,43.22
2023-07-04T09:05:54.431Z,42.76
2023-07-04T09:08:20.767Z,42.93
2023-07-04T09:10:48.061Z,41.62
2023-07-04T09:13:16.727Z,41.40
2023-07-04T09:15:43.814Z,42.11
2023-07-04T09:18:21.634Z,40.40
2023-07-04T09:21:07.618Z,40.04
2023-07-04T09:23:33.951Z,40.46
2023-07-04T09:26:00.263Z,40.09
2023-07-04T09:28:26.693Z,39.09
2023-07-04T09:30:54.231Z,40.29
2023-07-04T09:33:20.847Z,39.80
2023-07-04T09:35:47.584Z,39.39
2023-07-04T09:38:13.988Z,40.28
2023-07-04T09:40:40.429Z,39.51
2023-07-04T09:43:06.859Z,40.04
2023-07-04T09:45:33.585Z,40.69
2023-07-04T09:48:00.005Z,40.78
2023-07-04T09:50:30.514Z,41.26
2023-07-04T09:53:09.712Z,40.15
2023-07-04T09:55:36.901Z,41.50
2023-07-04T09:58:15.980Z,39.28
2023-07-04T10:00:44.011Z,39.03
2023-07-04T10:03:10.468Z,38.52
2023-07-04T10:05:36.966Z,38.80
2023-07-04T10:08:07.332Z,38.67
2023-07-04T10:10:37.927Z,39.77
2023-07-04T10:13:06.928Z,36.75
2023-07-04T10:15:40.071Z,39.33
2023-07-04T10:18:06.713Z,38.93
2023-07-04T10:20:36.831Z,35.76
2023-07-04T10:23:03.287Z,38.83
2023-07-04T10:25:31.313Z,38.57
2023-07-04T10:28:07.956Z,36.64
2023-07-04T10:30:34.307Z,36.10
2023-07-04T10:33:01.578Z,34.63
2023-07-04T10:35:28.906Z,36.05
2023-07-04T10:38:06.080Z,36.11
2023-07-04T10:40:32.822Z,36.32
2023-07-04T10:43:03.688Z,35.79
2023-07-04T10:45:30.113Z,35.36
2023-07-04T10:47:59.464Z,34.83
2023-07-04T10:50:29.492Z,35.54
2023-07-04T10:52:55.849Z,35.05
2023-07-04T10:55:27.332Z,37.98
2023-07-04T10:57:59.082Z,34.90
2023-07-04T11:00:27.108Z,36.44
2023-07-04T11:02:54.662Z,37.43
2023-07-04T11:05:23.692Z,38.25
2023-07-04T11:07:50.006Z,38.53
2023-07-04T11:10:16.373Z,38.30
2023-07-04T11:12:43.945Z,38.62
2023-07-04T11:15:30.715Z,38.78
2023-07-04T11:17:57.233Z,38.79
2023-07-04T11:20:26.693Z,38.97
2023-07-04T11:23:05.558Z,39.04
2023-07-04T11:25:38.344Z,38.84
2023-07-04T11:28:16.982Z,38.45
2023-07-04T11:30:43.800Z,38.00
2023-07-04T11:33:10.332Z,38.46
2023-07-04T11:35:37.324Z,37.81
2023-07-04T11:38:11.075Z,38.36
2023-07-04T11:40:44.178Z,39.34
2023-07-04T11:43:18.410Z,39.97
2023-07-04T11:45:46.575Z,37.97
2023-07-04T11:48:15.477Z,39.53
2023-07-04T11:50:43.434Z,38.60
2023-07-04T11:53:11.365Z,38.40
2023-07-04T11:55:37.762Z,37.02
2023-07-04T11:58:07.159Z,38.32
2023-07-04T12:00:36.522Z,37.76
2023-07-04T12:03:18.900Z,37.26
2023-07-04T12:05:45.475Z,36.67
2023-07-04T12:08:13.881Z,36.98
2023-07-04T12:10:40.262Z,37.67
2023-07-04T12:13:08.235Z,35.06
2023-07-04T12:15:35.049Z,37.26
2023-07-04T12:18:01.842Z,35.42
2023-07-04T12:20:28.833Z,36.15
2023-07-04T12:22:58.832Z,35.89
2023-07-04T12:25:26.380Z,37.06
2023-07-04T12:27:53.402Z,36.98
2023-07-04T12:30:19.774Z,37.18
2023-07-04T12:32:48.862Z,37.30
2023-07-04T12:35:16.547Z,36.15
2023-07-04T12:37:45.251Z,36.26
2023-07-04T12:40:13.020Z,37.27
2023-07-04T12:42:39.361Z,37.63
2023-07-04T12:45:10.026Z,37.71
2023-07-04T12:47:36.876Z,37.80
2023-07-04T12:50:04.331Z,38.33
2023-07-04T12:52:32.094Z,37.15
2023-07-04T12:54:58.465Z,37.13
2023-07-04T12:57:26.006Z,36.64
2023-07-04T12:59:52.353Z,33.53
2023-07-04T13:02:23.197Z,33.60
2023-07-04T13:04:51.035Z,34.27
2023-07-04T13:07:22.244Z,34.44
2023-07-04T13:09:51.598Z,31.64
2023-07-04T13:12:22.470Z,33.73
2023-07-04T13:14:48.782Z,33.20
2023-07-04T13:17:19.046Z,32.87
2023-07-04T13:19:45.406Z,31.90
2023-07-04T13:22:12.394Z,32.47
2023-07-04T13:27:14.210Z,32.51
2023-07-04T13:34:51.302Z,32.39
2023-07-04T13:37:17.639Z,33.77
2023-07-04T13:42:13.378Z,32.51
2023-07-04T13:47:09.803Z,34.03
2023-07-04T13:49:36.289Z,34.42
2023-07-04T13:52:02.697Z,33.61
2023-07-04T13:54:29.053Z,32.51
2023-07-04T13:56:55.417Z,33.29
2023-07-04T13:59:21.774Z,32.79
2023-07-04T14:06:52.596Z,31.48
2023-07-04T14:09:19.422Z,31.10
2023-07-04T14:11:46.048Z,31.48
2023-07-04T14:16:36.882Z,29.41
2023-07-04T14:17:29.728Z,29.71
2023-07-04T14:22:14.690Z,28.62
2023-07-04T14:24:41.158Z,28.62
2023-07-04T14:27:07.515Z,28.67
2023-07-04T14:29:33.863Z,27.77
2023-07-04T14:32:00.248Z,27.79
2023-07-04T14:34:27.173Z,28.13
2023-07-04T14:36:53.883Z,29.08
2023-07-04T14:39:20.238Z,29.96
2023-07-04T14:42:30.032Z,27.68
2023-07-04T14:44:32.849Z,27.08
2023-07-04T14:46:59.271Z,26.61
2023-07-04T14:49:25.802Z,27.45
2023-07-04T14:51:52.116Z,26.37
2023-07-04T14:54:20.203Z,27.04
2023-07-04T14:56:50.972Z,26.45
2023-07-04T14:59:17.656Z,26.25
2023-07-04T15:01:44.022Z,27.07
2023-07-04T15:04:10.410Z,26.11
2023-07-04T15:06:37.112Z,28.28
2023-07-04T15:09:03.662Z,29.07
2023-07-04T15:11:30.018Z,29.45
2023-07-04T15:13:56.409Z,28.53
2023-07-04T15:16:24.418Z,27.34
2023-07-04T15:18:50.828Z,26.09
2023-07-04T15:21:17.194Z,26.22
2023-07-04T15:23:43.517Z,25.61
2023-07-04T15:28:43.114Z,25.38
2023-07-04T15:31:09.516Z,25.04
2023-07-04T15:33:35.998Z,25.33
2023-07-04T15:36:02.423Z,26.33
2023-07-04T15:38:28.761Z,27.68
2023-07-04T15:40:59.136Z,25.62
2023-07-04T15:43:26.555Z,25.55
2023-07-04T15:45:53.850Z,23.87
2023-07-04T15:48:20.384Z,23.47
2023-07-04T15:50:46.778Z,25.23
2023-07-04T15:53:13.149Z,25.16
2023-07-04T15:55:39.459Z,25.31
2023-07-04T15:58:05.825Z,25.79
2023-07-04T16:00:32.244Z,25.43
2023-07-04T16:02:58.695Z,26.08
2023-07-04T16:05:25.050Z,26.25
2023-07-04T16:07:51.372Z,25.67
2023-07-04T16:10:17.863Z,25.47
2023-07-04T16:12:44.390Z,26.36
2023-07-04T16:15:10.886Z,28.44
2023-07-04T16:17:37.241Z,28.06
2023-07-04T16:20:04.127Z,27.27
2023-07-04T16:22:30.486Z,26.63
2023-07-04T16:24:56.796Z,24.09
2023-07-04T16:27:23.112Z,25.40
2023-07-04T16:29:50.650Z,26.74
2023-07-04T16:32:17.000Z,26.57
2023-07-04T16:34:44.224Z,25.13
2023-07-04T16:37:10.570Z,26.02
2023-07-04T16:39:37.452Z,24.79
2023-07-04T16:42:03.808Z,23.56
2023-07-04T16:44:33.108Z,26.42
2023-07-04T16:46:59.441Z,26.30
2023-07-04T16:49:25.798Z,27.16
2023-07-04T16:51:52.137Z,26.07
2023-07-04T16:54:18.465Z,25.54
2023-07-04T16:56:44.813Z,25.10
2023-07-04T16:59:11.370Z,25.45
2023-07-04T17:01:37.851Z,24.57
2023-07-04T17:04:04.353Z,25.66
2023-07-04T17:06:30.747Z,23.37
2023-07-04T17:08:57.764Z,23.63
2023-07-04T17:11:24.248Z,23.57
2023-07-04T17:13:50.623Z,23.88
2023-07-04T17:16:17.082Z,23.67
2023-07-04T17:18:43.472Z,23.59
2023-07-04T17:21:09.844Z,24.72
2023-07-04T17:23:36.492Z,23.77
2023-07-04T17:26:02.960Z,23.70
2023-07-04T17:28:29.313Z,23.08
2023-07-04T17:30:56.711Z,23.45
2023-07-04T17:33:23.172Z,23.31
2023-07-04T17:35:55.522Z,22.83
2023-07-04T17:38:23.173Z,23.07
2023-07-04T17:40:49.545Z,22.94
2023-07-04T17:43:15.885Z,23.15
2023-07-04T17:45:42.290Z,22.98
2023-07-04T17:48:08.720Z,23.68
2023-07-04T17:50:35.106Z,24.06
2023-07-04T17:53:01.551Z,23.22
2023-07-04T17:55:28.763Z,22.93
2023-07-04T17:57:55.633Z,23.66
2023-07-04T18:00:22.105Z,23.27
2023-07-04T18:02:48.534Z,23.71
2023-07-04T18:05:14.937Z,23.23
2023-07-04T18:07:41.323Z,22.55
2023-07-04T18:10:07.742Z,23.19
2023-07-04T18:12:34.075Z,23.64
2023-07-04T18:15:00.407Z,23.34
2023-07-04T18:17:26.869Z,23.59
2023-07-04T18:19:57.047Z,23.72
2023-07-04T18:22:25.981Z,22.96
2023-07-04T18:24:53.901Z,23.43
2023-07-04T18:27:20.547Z,23.10
2023-07-04T18:29:46.938Z,23.73
2023-07-04T18:32:13.255Z,24.08
2023-07-04T18:34:39.604Z,23.21
2023-07-04T18:37:06.016Z,23.75
2023-07-04T18:39:32.380Z,24.76
2023-07-04T18:41:58.752Z,24.09
2023-07-04T18:44:25.397Z,24.68
2023-07-04T18:46:52.643Z,25.04
2023-07-04T18:49:20.067Z,24.23
2023-07-04T18:51:46.398Z,24.62
2023-07-04T18:54:13.416Z,24.71
2023-07-04T18:56:41.843Z,25.50
2023-07-04T18:59:08.660Z,24.65
2023-07-04T19:01:35.902Z,25.06
2023-07-04T19:04:02.421Z,24.20
2023-07-04T19:06:29.278Z,25.66
2023-07-04T19:08:56.528Z,24.77
2023-07-04T19:11:23.408Z,25.60
2023-07-04T19:14:08.666Z,25.57
2023-07-04T19:16:35.784Z,25.86
2023-07-04T19:19:02.339Z,26.38
2023-07-04T19:21:28.728Z,26.52
2023-07-04T19:23:55.093Z,26.45
2023-07-04T19:26:21.532Z,26.41
2023-07-04T19:28:48.197Z,25.70
2023-07-04T19:31:14.589Z,25.87
2023-07-04T19:33:40.940Z,26.33
2023-07-04T19:36:07.872Z,26.12
2023-07-04T19:38:34.212Z,26.15
2023-07-04T19:41:01.358Z,26.87
2023-07-04T19:43:27.989Z,27.69
2023-07-04T19:45:58.964Z,27.55
2023-07-04T19:48:26.127Z,26.43
2023-07-04T19:50:52.534Z,25.88
2023-07-04T19:53:18.966Z,26.18
2023-07-04T19:55:45.297Z,26.74
2023-07-04T19:58:11.647Z,28.24
2023-07-04T20:00:37.993Z,26.45
2023-07-04T20:03:04.457Z,27.63
2023-07-04T20:05:30.825Z,27.13
2023-07-04T20:07:59.206Z,27.93
2023-07-04T20:10:27.257Z,28.31
2023-07-04T20:12:53.581Z,28.16
2023-07-04T20:15:19.904Z,26.46
2023-07-04T20:17:46.223Z,28.05
2023-07-04T20:20:12.786Z,28.20
2023-07-04T20:22:39.195Z,28.06
2023-07-04T20:25:05.631Z,28.72
2023-07-04T20:27:31.958Z,27.24
2023-07-04T20:29:58.394Z,28.05
2023-07-04T20:32:24.728Z,28.37
2023-07-04T20:34:51.084Z,28.49
2023-07-04T20:37:17.427Z,29.94
2023-07-04T20:39:43.774Z,30.46
2023-07-04T20:42:10.124Z,30.60
2023-07-04T20:44:36.451Z,29.83
2023-07-04T20:47:02.785Z,29.66
2023-07-04T20:49:29.338Z,29.73
2023-07-04T20:51:55.796Z,29.28
2023-07-04T20:54:23.022Z,29.74
2023-07-04T20:56:49.357Z,28.61
2023-07-04T20:59:15.700Z,28.82
2023-07-04T21:01:43.424Z,28.85
2023-07-04T21:04:09.936Z,29.17
2023-07-04T21:06:38.627Z,28.28
2023-07-04T21:09:15.089Z,29.21
2023-07-04T21:11:41.436Z,28.97
2023-07-04T21:14:07.820Z,29.43
2023-07-04T21:16:34.304Z,29.17
2023-07-04T21:19:00.748Z,28.30
2023-07-04T21:21:28.340Z,29.17
2023-07-04T21:23:54.686Z,30.20
2023-07-04T21:26:21.044Z,29.28
2023-07-04T21:28:47.405Z,28.86
2023-07-04T21:31:13.896Z,29.05
2023-07-04T21:33:40.723Z,29.70
2023-07-04T21:36:07.111Z,29.62
2023-07-04T21:38:34.005Z,29.63
2023-07-04T21:41:00.516Z,29.45
2023-07-04T21:43:26.846Z,29.70
2023-07-04T21:45:56.854Z,29.75
2023-07-04T21:48:23.500Z,30.80
2023-07-04T21:50:51.149Z,32.00
2023-07-04T21:53:17.582Z,32.65
2023-07-04T21:55:44.241Z,33.16
2023-07-04T21:58:10.581Z,33.52
2023-07-04T22:00:36.970Z,32.13
2023-07-04T22:03:03.434Z,32.41
2023-07-04T22:05:29.904Z,32.42
2023-07-04T22:07:56.241Z,32.65
2023-07-04T22:10:22.657Z,31.52
2023-07-04T22:12:50.353Z,31.47
2023-07-04T22:15:22.697Z,31.55
2023-07-04T22:17:49.275Z,31.05
2023-07-04T22:20:15.985Z,32.11
2023-07-04T22:22:42.465Z,31.99
2023-07-04T22:25:09.102Z,32.34
2023-07-04T22:27:35.439Z,32.85
2023-07-04T22:30:01.768Z,33.13
2023-07-04T22:32:28.146Z,33.64
2023-07-04T22:34:54.520Z,33.53
2023-07-04T22:37:20.831Z,34.01
2023-07-04T22:39:47.166Z,33.39
2023-07-04T22:42:13.511Z,33.42
2023-07-04T22:44:39.855Z,33.72
2023-07-04T22:47:06.380Z,33.55
2023-07-04T22:49:33.431Z,32.83
2023-07-04T22:52:00.627Z,32.46
2023-07-04T22:54:27.608Z,32.98
2023-07-04T22:56:53.933Z,32.72
2023-07-04T22:59:20.242Z,32.54
2023-07-04T23:01:46.753Z,32.37
2023-07-04T23:04:13.147Z,32.00
2023-07-04T23:06:39.481Z,32.04
2023-07-04T23:09:06.390Z,32.42
2023-07-04T23:11:32.715Z,33.26
2023-07-04T23:13:59.069Z,33.93
2023-07-04T23:16:25.394Z,34.47
2023-07-04T23:18:51.803Z,34.80
2023-07-04T23:21:18.407Z,35.37
2023-07-04T23:23:45.798Z,34.98
2023-07-04T23:26:15.915Z,35.63
2023-07-04T23:28:42.511Z,36.11
2023-07-04T23:31:11.513Z,35.94
2023-07-04T23:33:37.910Z,36.01
2023-07-04T23:36:06.076Z,36.08
2023-07-04T23:38:32.436Z,35.52
2023-07-04T23:40:58.749Z,34.93
2023-07-04T23:43:25.123Z,34.73
2023-07-04T23:45:51.990Z,35.03
2023-07-04T23:48:18.512Z,34.57
2023-07-04T23:50:44.856Z,34.76
2023-07-04T23:53:11.223Z,35.00
2023-07-04T23:55:37.607Z,35.03
2023-07-04T23:58:04.030Z,35.02
